sensor_id;sensor_type;location;lat;lon;timestamp;temperature;humidity
22578;DHT22;11455;52.390;13.028;2023-03-04T00:01:39;4.70;99.90
22578;DHT22;11455;52.390;13.028;2023-03-04T00:04:05;4.60;99.90
22578;DHT22;11455;52.390;13.028;2023-03-04T00:06:31;4.60;99.90
22578;DHT22;11455;52.390;13.028;2023-03-04T00:08:56;4.50;99.90
22578;DHT22;11455;52.390;13.028;2023-03-04T00:11:22;4.50;99.90
22578;DHT22;11455;52.390;13.028;2023-03-04T00:13:50;4.50;99.90
22578;DHT22;11455;52.390;13.028;2023-03-04T00:16:16;4.50;99.90
22578;DHT22;11455;52.390;13.028;2023-03-04T00:18:41;4.50;99.90
22578;DHT22;11455;52.390;13.028;2023-03-04T00:21:07;4.50;99.90
22578;DHT22;11455;52.390;13.028;2023-03-04T00:23:33;4.50;99.90
22578;DHT22;11455;52.390;13.028;2023-03-04T00:25:58;4.50;99.90
22578;DHT22;11455;52.390;13.028;2023-03-04T00:28:24;4.50;99.90
22578;DHT22;11455;52.390;13.028;2023-03-04T00:30:50;4.50;99.90
22578;DHT22;11455;52.390;13.028;2023-03-04T00:33:15;4.50;99.90
22578;DHT22;11455;52.390;13.028;2023-03-04T00:35:41;4.50;99.90
22578;DHT22;11455;52.390;13.028;2023-03-04T00:38:07;4.40;99.90
22578;DHT22;11455;52.390;13.028;2023-03-04T00:40:32;4.40;99.90
22578;DHT22;11455;52.390;13.028;2023-03-04T00:42:58;4.50;99.90
22578;DHT22;11455;52.390;13.028;2023-03-04T00:45:27;4.50;99.90
22578;DHT22;11455;52.390;13.028;2023-03-04T00:47:52;4.50;99.90
22578;DHT22;11455;52.390;13.028;2023-03-04T00:50:18;4.50;99.90
22578;DHT22;11455;52.390;13.028;2023-03-04T00:52:44;4.60;99.90
22578;DHT22;11455;52.390;13.028;2023-03-04T00:55:09;4.60;99.90
22578;DHT22;11455;52.390;13.028;2023-03-04T00:57:35;4.50;99.90
22578;DHT22;11455;52.390;13.028;2023-03-04T01:00:01;4.60;99.90
22578;DHT22;11455;52.390;13.028;2023-03-04T01:02:27;4.60;99.90
22578;DHT22;11455;52.390;13.028;2023-03-04T01:04:52;4.50;99.90
22578;DHT22;11455;52.390;13.028;2023-03-04T01:07:18;4.50;99.90
22578;DHT22;11455;52.390;13.028;2023-03-04T01:09:43;4.50;99.90
22578;DHT22;11455;52.390;13.028;2023-03-04T01:12:09;4.40;99.90
22578;DHT22;11455;52.390;13.028;2023-03-04T01:14:37;4.50;99.90
22578;DHT22;11455;52.390;13.028;2023-03-04T01:17:03;4.40;99.90
22578;DHT22;11455;52.390;13.028;2023-03-04T01:19:29;4.40;99.90
22578;DHT22;11455;52.390;13.028;2023-03-04T01:21:54;4.40;99.90
22578;DHT22;11455;52.390;13.028;2023-03-04T01:24:20;4.40;99.90
22578;DHT22;11455;52.390;13.028;2023-03-04T01:26:55;4.30;99.90
22578;DHT22;11455;52.390;13.028;2023-03-04T01:29:21;4.30;99.90
22578;DHT22;11455;52.390;13.028;2023-03-04T01:31:46;4.30;99.90
22578;DHT22;11455;52.390;13.028;2023-03-04T01:34:12;4.30;99.90
22578;DHT22;11455;52.390;13.028;2023-03-04T01:36:37;4.30;99.90
22578;DHT22;11455;52.390;13.028;2023-03-04T01:39:04;4.30;99.90
22578;DHT22;11455;52.390;13.028;2023-03-04T01:41:30;4.30;99.90
22578;DHT22;11455;52.390;13.028;2023-03-04T01:43:55;4.30;99.90
22578;DHT22;11455;52.390;13.028;2023-03-04T01:46:22;4.30;99.90
22578;DHT22;11455;52.390;13.028;2023-03-04T01:48:48;4.30;99.90
22578;DHT22;11455;52.390;13.028;2023-03-04T01:51:14;4.40;99.90
22578;DHT22;11455;52.390;13.028;2023-03-04T01:53:41;4.40;99.90
22578;DHT22;11455;52.390;13.028;2023-03-04T01:56:11;4.40;99.90
22578;DHT22;11455;52.390;13.028;2023-03-04T01:58:39;4.40;99.90
22578;DHT22;11455;52.390;13.028;2023-03-04T02:01:07;4.40;99.90
22578;DHT22;11455;52.390;13.028;2023-03-04T02:03:33;4.50;99.90
22578;DHT22;11455;52.390;13.028;2023-03-04T02:05:59;4.50;99.90
22578;DHT22;11455;52.390;13.028;2023-03-04T02:08:25;4.50;99.90
22578;DHT22;11455;52.390;13.028;2023-03-04T02:10:51;4.50;99.90
22578;DHT22;11455;52.390;13.028;2023-03-04T02:13:17;4.50;99.90
22578;DHT22;11455;52.390;13.028;2023-03-04T02:15:44;4.60;99.90
22578;DHT22;11455;52.390;13.028;2023-03-04T02:18:28;4.60;99.90
22578;DHT22;11455;52.390;13.028;2023-03-04T02:20:56;4.70;99.90
22578;DHT22;11455;52.390;13.028;2023-03-04T02:26:08;4.80;99.90
22578;DHT22;11455;52.390;13.028;2023-03-04T02:28:34;4.70;99.90
22578;DHT22;11455;52.390;13.028;2023-03-04T02:31:00;4.80;99.90
22578;DHT22;11455;52.390;13.028;2023-03-04T02:33:26;4.80;99.90
22578;DHT22;11455;52.390;13.028;2023-03-04T02:35:51;4.90;99.90
22578;DHT22;11455;52.390;13.028;2023-03-04T02:38:17;4.90;99.90
22578;DHT22;11455;52.390;13.028;2023-03-04T02:40:44;5.00;99.90
22578;DHT22;11455;52.390;13.028;2023-03-04T02:43:11;5.00;99.90
22578;DHT22;11455;52.390;13.028;2023-03-04T02:45:38;5.00;99.90
22578;DHT22;11455;52.390;13.028;2023-03-04T02:48:06;5.00;99.90
22578;DHT22;11455;52.390;13.028;2023-03-04T02:50:35;5.00;99.90
22578;DHT22;11455;52.390;13.028;2023-03-04T02:53:02;5.00;99.90
22578;DHT22;11455;52.390;13.028;2023-03-04T02:55:28;5.00;99.90
22578;DHT22;11455;52.390;13.028;2023-03-04T02:57:54;5.00;99.90
22578;DHT22;11455;52.390;13.028;2023-03-04T03:00:20;5.00;99.90
22578;DHT22;11455;52.390;13.028;2023-03-04T03:02:46;5.00;99.90
22578;DHT22;11455;52.390;13.028;2023-03-04T03:05:12;5.00;99.90
22578;DHT22;11455;52.390;13.028;2023-03-04T03:07:39;5.00;99.90
22578;DHT22;11455;52.390;13.028;2023-03-04T03:10:05;5.10;99.90
22578;DHT22;11455;52.390;13.028;2023-03-04T03:12:30;5.10;99.90
22578;DHT22;11455;52.390;13.028;2023-03-04T03:14:56;5.10;99.90
22578;DHT22;11455;52.390;13.028;2023-03-04T03:17:23;5.20;99.90
22578;DHT22;11455;52.390;13.028;2023-03-04T03:19:48;5.10;99.90
22578;DHT22;11455;52.390;13.028;2023-03-04T03:22:14;5.20;99.90
22578;DHT22;11455;52.390;13.028;2023-03-04T03:24:40;5.20;99.90
22578;DHT22;11455;52.390;13.028;2023-03-04T03:27:06;5.20;99.90
22578;DHT22;11455;52.390;13.028;2023-03-04T03:29:32;5.20;99.90
22578;DHT22;11455;52.390;13.028;2023-03-04T03:31:58;5.20;99.90
22578;DHT22;11455;52.390;13.028;2023-03-04T03:34:24;5.20;99.90
22578;DHT22;11455;52.390;13.028;2023-03-04T03:36:50;5.20;99.90
22578;DHT22;11455;52.390;13.028;2023-03-04T03:39:15;5.20;99.90
22578;DHT22;11455;52.390;13.028;2023-03-04T03:41:41;5.30;99.90
22578;DHT22;11455;52.390;13.028;2023-03-04T03:44:06;5.30;99.90
22578;DHT22;11455;52.390;13.028;2023-03-04T03:46:32;5.30;99.90
22578;DHT22;11455;52.390;13.028;2023-03-04T03:49:07;5.30;99.90
22578;DHT22;11455;52.390;13.028;2023-03-04T03:51:32;5.30;99.90
22578;DHT22;11455;52.390;13.028;2023-03-04T03:53:58;5.40;99.90
22578;DHT22;11455;52.390;13.028;2023-03-04T03:56:24;5.40;99.90
22578;DHT22;11455;52.390;13.028;2023-03-04T03:58:49;5.40;99.90
22578;DHT22;11455;52.390;13.028;2023-03-04T04:01:15;5.40;99.90
22578;DHT22;11455;52.390;13.028;2023-03-04T04:03:41;5.40;99.90
22578;DHT22;11455;52.390;13.028;2023-03-04T04:06:09;5.50;99.90
22578;DHT22;11455;52.390;13.028;2023-03-04T04:08:35;5.50;99.90
22578;DHT22;11455;52.390;13.028;2023-03-04T04:11:00;5.50;99.90
22578;DHT22;11455;52.390;13.028;2023-03-04T04:13:26;5.50;99.90
22578;DHT22;11455;52.390;13.028;2023-03-04T04:15:52;5.60;99.90
22578;DHT22;11455;52.390;13.028;2023-03-04T04:18:17;5.60;99.90
22578;DHT22;11455;52.390;13.028;2023-03-04T04:20:43;5.60;99.90
22578;DHT22;11455;52.390;13.028;2023-03-04T04:23:12;5.60;99.90
22578;DHT22;11455;52.390;13.028;2023-03-04T04:25:37;5.60;99.90
22578;DHT22;11455;52.390;13.028;2023-03-04T04:28:03;5.60;99.90
22578;DHT22;11455;52.390;13.028;2023-03-04T04:30:29;5.60;99.90
22578;DHT22;11455;52.390;13.028;2023-03-04T04:32:54;5.60;99.90
22578;DHT22;11455;52.390;13.028;2023-03-04T04:35:20;5.70;99.90
22578;DHT22;11455;52.390;13.028;2023-03-04T04:37:46;5.70;99.90
22578;DHT22;11455;52.390;13.028;2023-03-04T04:40:11;5.80;99.90
22578;DHT22;11455;52.390;13.028;2023-03-04T04:42:37;5.80;99.90
22578;DHT22;11455;52.390;13.028;2023-03-04T04:45:03;5.80;99.90
22578;DHT22;11455;52.390;13.028;2023-03-04T04:47:28;5.80;99.90
22578;DHT22;11455;52.390;13.028;2023-03-04T04:49:54;5.80;99.90
22578;DHT22;11455;52.390;13.028;2023-03-04T04:52:20;5.80;99.90
22578;DHT22;11455;52.390;13.028;2023-03-04T04:54:45;5.90;99.90
22578;DHT22;11455;52.390;13.028;2023-03-04T04:57:11;5.90;99.90
22578;DHT22;11455;52.390;13.028;2023-03-04T04:59:36;5.90;99.90
22578;DHT22;11455;52.390;13.028;2023-03-04T05:02:02;5.90;99.90
22578;DHT22;11455;52.390;13.028;2023-03-04T05:04:28;5.90;99.90
22578;DHT22;11455;52.390;13.028;2023-03-04T05:06:53;5.90;99.90
22578;DHT22;11455;52.390;13.028;2023-03-04T05:09:22;5.90;99.90
22578;DHT22;11455;52.390;13.028;2023-03-04T05:11:47;5.90;99.90
22578;DHT22;11455;52.390;13.028;2023-03-04T05:14:13;5.90;99.90
22578;DHT22;11455;52.390;13.028;2023-03-04T05:16:39;5.90;99.90
22578;DHT22;11455;52.390;13.028;2023-03-04T05:19:05;5.90;99.90
22578;DHT22;11455;52.390;13.028;2023-03-04T05:21:30;5.90;99.90
22578;DHT22;11455;52.390;13.028;2023-03-04T05:23:56;5.90;99.90
22578;DHT22;11455;52.390;13.028;2023-03-04T05:26:22;5.90;99.90
22578;DHT22;11455;52.390;13.028;2023-03-04T05:28:47;5.90;99.90
22578;DHT22;11455;52.390;13.028;2023-03-04T05:31:15;5.90;99.90
22578;DHT22;11455;52.390;13.028;2023-03-04T05:33:42;5.90;99.90
22578;DHT22;11455;52.390;13.028;2023-03-04T05:36:10;5.90;99.90
22578;DHT22;11455;52.390;13.028;2023-03-04T05:38:39;5.90;99.90
22578;DHT22;11455;52.390;13.028;2023-03-04T05:41:05;6.00;99.90
22578;DHT22;11455;52.390;13.028;2023-03-04T05:43:31;5.90;99.90
22578;DHT22;11455;52.390;13.028;2023-03-04T05:46:00;5.90;99.90
22578;DHT22;11455;52.390;13.028;2023-03-04T05:48:25;6.00;99.90
22578;DHT22;11455;52.390;13.028;2023-03-04T05:50:53;6.00;99.90
22578;DHT22;11455;52.390;13.028;2023-03-04T05:53:19;6.00;99.90
22578;DHT22;11455;52.390;13.028;2023-03-04T05:55:45;6.00;99.90
22578;DHT22;11455;52.390;13.028;2023-03-04T05:58:14;6.00;99.90
22578;DHT22;11455;52.390;13.028;2023-03-04T06:00:39;6.00;99.90
22578;DHT22;11455;52.390;13.028;2023-03-04T06:03:05;6.10;99.90
22578;DHT22;11455;52.390;13.028;2023-03-04T06:05:34;6.10;99.90
22578;DHT22;11455;52.390;13.028;2023-03-04T06:07:59;6.10;99.90
22578;DHT22;11455;52.390;13.028;2023-03-04T06:10:25;6.10;99.90
22578;DHT22;11455;52.390;13.028;2023-03-04T06:12:51;6.10;99.90
22578;DHT22;11455;52.390;13.028;2023-03-04T06:15:16;6.10;99.90
22578;DHT22;11455;52.390;13.028;2023-03-04T06:17:42;6.10;99.90
22578;DHT22;11455;52.390;13.028;2023-03-04T06:20:08;6.10;99.90
22578;DHT22;11455;52.390;13.028;2023-03-04T06:22:34;6.10;99.90
22578;DHT22;11455;52.390;13.028;2023-03-04T06:25:00;6.10;99.90
22578;DHT22;11455;52.390;13.028;2023-03-04T06:27:25;6.20;99.90
22578;DHT22;11455;52.390;13.028;2023-03-04T06:29:51;6.20;99.90
22578;DHT22;11455;52.390;13.028;2023-03-04T06:32:17;6.20;99.90
22578;DHT22;11455;52.390;13.028;2023-03-04T06:34:42;6.20;99.90
22578;DHT22;11455;52.390;13.028;2023-03-04T06:37:08;6.20;99.90
22578;DHT22;11455;52.390;13.028;2023-03-04T06:39:34;6.20;99.90
22578;DHT22;11455;52.390;13.028;2023-03-04T06:41:59;6.20;99.90
22578;DHT22;11455;52.390;13.028;2023-03-04T06:44:25;6.20;99.90
22578;DHT22;11455;52.390;13.028;2023-03-04T06:46:50;6.20;99.90
22578;DHT22;11455;52.390;13.028;2023-03-04T06:49:16;6.20;99.90
22578;DHT22;11455;52.390;13.028;2023-03-04T06:51:45;6.20;99.90
22578;DHT22;11455;52.390;13.028;2023-03-04T06:54:10;6.20;99.90
22578;DHT22;11455;52.390;13.028;2023-03-04T06:56:36;6.20;99.90
22578;DHT22;11455;52.390;13.028;2023-03-04T06:59:07;6.20;99.90
22578;DHT22;11455;52.390;13.028;2023-03-04T07:01:33;6.20;99.90
22578;DHT22;11455;52.390;13.028;2023-03-04T07:04:00;6.20;99.90
22578;DHT22;11455;52.390;13.028;2023-03-04T07:06:27;6.20;99.90
22578;DHT22;11455;52.390;13.028;2023-03-04T07:08:53;6.20;99.90
22578;DHT22;11455;52.390;13.028;2023-03-04T07:11:19;6.20;99.90
22578;DHT22;11455;52.390;13.028;2023-03-04T07:13:46;6.20;99.90
22578;DHT22;11455;52.390;13.028;2023-03-04T07:16:13;6.20;99.90
22578;DHT22;11455;52.390;13.028;2023-03-04T07:18:39;6.20;1.00
22578;DHT22;11455;52.390;13.028;2023-03-04T07:21:05;6.30;99.90
22578;DHT22;11455;52.390;13.028;2023-03-04T07:23:31;6.30;99.90
22578;DHT22;11455;52.390;13.028;2023-03-04T07:25:57;6.30;99.90
22578;DHT22;11455;52.390;13.028;2023-03-04T07:28:23;6.30;99.90
22578;DHT22;11455;52.390;13.028;2023-03-04T07:30:51;6.30;99.90
22578;DHT22;11455;52.390;13.028;2023-03-04T07:33:17;6.30;1.00
22578;DHT22;11455;52.390;13.028;2023-03-04T07:35:42;6.30;1.00
22578;DHT22;11455;52.390;13.028;2023-03-04T07:38:08;6.30;1.00
22578;DHT22;11455;52.390;13.028;2023-03-04T07:40:34;6.30;1.00
22578;DHT22;11455;52.390;13.028;2023-03-04T07:42:59;6.30;1.00
22578;DHT22;11455;52.390;13.028;2023-03-04T07:45:26;6.30;1.00
22578;DHT22;11455;52.390;13.028;2023-03-04T07:47:52;6.30;1.00
22578;DHT22;11455;52.390;13.028;2023-03-04T07:50:19;6.30;1.00
22578;DHT22;11455;52.390;13.028;2023-03-04T07:52:50;6.30;1.00
22578;DHT22;11455;52.390;13.028;2023-03-04T07:55:15;6.20;1.00
22578;DHT22;11455;52.390;13.028;2023-03-04T07:57:42;6.20;1.00
22578;DHT22;11455;52.390;13.028;2023-03-04T08:00:13;6.20;1.00
22578;DHT22;11455;52.390;13.028;2023-03-04T08:02:39;6.20;1.00
22578;DHT22;11455;52.390;13.028;2023-03-04T08:05:05;6.20;1.00
22578;DHT22;11455;52.390;13.028;2023-03-04T08:07:31;6.30;1.00
22578;DHT22;11455;52.390;13.028;2023-03-04T08:09:57;6.30;1.00
22578;DHT22;11455;52.390;13.028;2023-03-04T08:12:25;6.30;1.00
22578;DHT22;11455;52.390;13.028;2023-03-04T08:14:54;6.30;1.00
22578;DHT22;11455;52.390;13.028;2023-03-04T08:17:20;6.30;1.00
22578;DHT22;11455;52.390;13.028;2023-03-04T08:19:45;6.30;1.00
22578;DHT22;11455;52.390;13.028;2023-03-04T08:22:14;6.30;1.00
22578;DHT22;11455;52.390;13.028;2023-03-04T08:24:40;6.40;1.00
22578;DHT22;11455;52.390;13.028;2023-03-04T08:27:05;6.40;1.00
22578;DHT22;11455;52.390;13.028;2023-03-04T08:29:31;6.50;1.00
22578;DHT22;11455;52.390;13.028;2023-03-04T08:31:59;6.50;1.00
22578;DHT22;11455;52.390;13.028;2023-03-04T08:34:25;6.50;1.00
22578;DHT22;11455;52.390;13.028;2023-03-04T08:36:51;6.50;1.00
22578;DHT22;11455;52.390;13.028;2023-03-04T08:39:17;6.50;1.00
22578;DHT22;11455;52.390;13.028;2023-03-04T08:41:43;6.50;1.00
22578;DHT22;11455;52.390;13.028;2023-03-04T08:44:11;6.50;1.00
22578;DHT22;11455;52.390;13.028;2023-03-04T08:46:38;6.50;1.00
22578;DHT22;11455;52.390;13.028;2023-03-04T08:49:04;6.50;1.00
22578;DHT22;11455;52.390;13.028;2023-03-04T08:51:29;6.50;1.00
22578;DHT22;11455;52.390;13.028;2023-03-04T08:53:55;6.60;1.00
22578;DHT22;11455;52.390;13.028;2023-03-04T08:56:21;6.60;1.00
22578;DHT22;11455;52.390;13.028;2023-03-04T08:58:46;6.50;1.00
22578;DHT22;11455;52.390;13.028;2023-03-04T09:01:13;6.50;99.90
22578;DHT22;11455;52.390;13.028;2023-03-04T09:03:38;6.60;1.00
22578;DHT22;11455;52.390;13.028;2023-03-04T09:06:04;6.60;1.00
22578;DHT22;11455;52.390;13.028;2023-03-04T09:08:30;6.60;99.90
22578;DHT22;11455;52.390;13.028;2023-03-04T09:10:56;6.60;99.90
22578;DHT22;11455;52.390;13.028;2023-03-04T09:13:22;6.70;99.90
22578;DHT22;11455;52.390;13.028;2023-03-04T09:15:49;6.70;99.90
22578;DHT22;11455;52.390;13.028;2023-03-04T09:18:15;6.70;99.90
22578;DHT22;11455;52.390;13.028;2023-03-04T09:20:42;6.70;99.90
22578;DHT22;11455;52.390;13.028;2023-03-04T09:23:08;6.70;99.90
22578;DHT22;11455;52.390;13.028;2023-03-04T09:25:34;6.70;99.90
22578;DHT22;11455;52.390;13.028;2023-03-04T09:28:00;6.70;99.90
22578;DHT22;11455;52.390;13.028;2023-03-04T09:30:26;6.80;99.90
22578;DHT22;11455;52.390;13.028;2023-03-04T09:32:51;6.80;99.90
22578;DHT22;11455;52.390;13.028;2023-03-04T09:35:17;6.80;99.90
22578;DHT22;11455;52.390;13.028;2023-03-04T09:37:43;6.80;99.90
22578;DHT22;11455;52.390;13.028;2023-03-04T09:40:15;6.80;99.90
22578;DHT22;11455;52.390;13.028;2023-03-04T09:42:42;6.90;99.90
22578;DHT22;11455;52.390;13.028;2023-03-04T09:45:10;6.90;99.90
22578;DHT22;11455;52.390;13.028;2023-03-04T09:47:41;6.90;99.90
22578;DHT22;11455;52.390;13.028;2023-03-04T09:50:09;6.80;99.90
22578;DHT22;11455;52.390;13.028;2023-03-04T09:55:41;6.80;99.90
22578;DHT22;11455;52.390;13.028;2023-03-04T10:00:51;6.70;99.90
22578;DHT22;11455;52.390;13.028;2023-03-04T10:03:24;6.80;99.90
22578;DHT22;11455;52.390;13.028;2023-03-04T10:05:53;6.70;99.90
22578;DHT22;11455;52.390;13.028;2023-03-04T10:08:23;6.70;99.90
22578;DHT22;11455;52.390;13.028;2023-03-04T10:10:51;6.70;99.90
22578;DHT22;11455;52.390;13.028;2023-03-04T10:13:21;6.80;99.90
22578;DHT22;11455;52.390;13.028;2023-03-04T10:15:50;6.80;99.90
22578;DHT22;11455;52.390;13.028;2023-03-04T10:18:30;6.80;99.90
22578;DHT22;11455;52.390;13.028;2023-03-04T10:23:26;6.80;99.90
22578;DHT22;11455;52.390;13.028;2023-03-04T10:25:52;6.80;99.90
22578;DHT22;11455;52.390;13.028;2023-03-04T10:28:24;6.80;99.90
22578;DHT22;11455;52.390;13.028;2023-03-04T10:33:29;6.80;99.90
22578;DHT22;11455;52.390;13.028;2023-03-04T10:35:59;6.80;99.90
22578;DHT22;11455;52.390;13.028;2023-03-04T10:38:25;6.80;99.90
22578;DHT22;11455;52.390;13.028;2023-03-04T10:40:53;6.80;99.90
22578;DHT22;11455;52.390;13.028;2023-03-04T10:43:19;6.70;63.90
22578;DHT22;11455;52.390;13.028;2023-03-04T10:45:46;6.70;28.40
22578;DHT22;11455;52.390;13.028;2023-03-04T10:48:20;6.60;23.20
22578;DHT22;11455;52.390;13.028;2023-03-04T10:50:49;6.70;17.30
22578;DHT22;11455;52.390;13.028;2023-03-04T10:53:23;6.70;12.50
22578;DHT22;11455;52.390;13.028;2023-03-04T10:55:49;6.70;1.00
22578;DHT22;11455;52.390;13.028;2023-03-04T10:58:17;6.70;1.00
22578;DHT22;11455;52.390;13.028;2023-03-04T11:00:49;6.80;1.00
22578;DHT22;11455;52.390;13.028;2023-03-04T11:06:02;6.80;1.00
22578;DHT22;11455;52.390;13.028;2023-03-04T11:08:28;6.80;1.00
22578;DHT22;11455;52.390;13.028;2023-03-04T11:10:54;6.80;1.00
22578;DHT22;11455;52.390;13.028;2023-03-04T11:13:20;6.80;1.00
22578;DHT22;11455;52.390;13.028;2023-03-04T11:15:54;6.80;1.00
22578;DHT22;11455;52.390;13.028;2023-03-04T11:18:22;6.70;1.00
22578;DHT22;11455;52.390;13.028;2023-03-04T11:20:50;6.80;1.00
22578;DHT22;11455;52.390;13.028;2023-03-04T11:23:27;6.80;1.00
22578;DHT22;11455;52.390;13.028;2023-03-04T11:25:58;6.70;1.00
22578;DHT22;11455;52.390;13.028;2023-03-04T11:28:27;6.80;1.00
22578;DHT22;11455;52.390;13.028;2023-03-04T11:30:57;6.70;1.00
22578;DHT22;11455;52.390;13.028;2023-03-04T11:33:27;6.70;1.00
22578;DHT22;11455;52.390;13.028;2023-03-04T11:38:45;6.80;1.00
22578;DHT22;11455;52.390;13.028;2023-03-04T11:41:13;6.90;1.00
22578;DHT22;11455;52.390;13.028;2023-03-04T11:43:42;6.90;1.00
22578;DHT22;11455;52.390;13.028;2023-03-04T11:56:34;7.00;1.00
22578;DHT22;11455;52.390;13.028;2023-03-04T11:59:04;7.00;1.00
22578;DHT22;11455;52.390;13.028;2023-03-04T12:07:18;7.10;1.00
22578;DHT22;11455;52.390;13.028;2023-03-04T12:14:43;7.10;1.00
22578;DHT22;11455;52.390;13.028;2023-03-04T12:17:15;7.10;1.00
22578;DHT22;11455;52.390;13.028;2023-03-04T12:22:32;7.20;1.00
22578;DHT22;11455;52.390;13.028;2023-03-04T12:35:51;7.10;1.00
22578;DHT22;11455;52.390;13.028;2023-03-04T12:43:32;7.10;1.00
22578;DHT22;11455;52.390;13.028;2023-03-04T12:46:07;7.10;1.00
22578;DHT22;11455;52.390;13.028;2023-03-04T12:48:38;7.10;1.00
22578;DHT22;11455;52.390;13.028;2023-03-04T12:53:32;7.10;1.00
22578;DHT22;11455;52.390;13.028;2023-03-04T12:56:02;7.20;1.00
22578;DHT22;11455;52.390;13.028;2023-03-04T12:58:29;7.20;1.00
22578;DHT22;11455;52.390;13.028;2023-03-04T13:01:05;7.20;1.00
22578;DHT22;11455;52.390;13.028;2023-03-04T13:16:32;7.10;1.00
22578;DHT22;11455;52.390;13.028;2023-03-04T13:18:58;7.20;1.00
22578;DHT22;11455;52.390;13.028;2023-03-04T13:21:25;7.20;1.00
22578;DHT22;11455;52.390;13.028;2023-03-04T13:23:52;7.20;1.00
22578;DHT22;11455;52.390;13.028;2023-03-04T13:26:21;7.20;1.00
22578;DHT22;11455;52.390;13.028;2023-03-04T13:28:51;7.20;1.00
22578;DHT22;11455;52.390;13.028;2023-03-04T13:31:18;7.20;1.00
22578;DHT22;11455;52.390;13.028;2023-03-04T13:33:46;7.20;1.00
22578;DHT22;11455;52.390;13.028;2023-03-04T13:46:55;7.30;1.00
22578;DHT22;11455;52.390;13.028;2023-03-04T13:49:21;7.30;1.00
22578;DHT22;11455;52.390;13.028;2023-03-04T13:51:51;7.40;1.00
22578;DHT22;11455;52.390;13.028;2023-03-04T13:54:21;7.30;1.00
22578;DHT22;11455;52.390;13.028;2023-03-04T14:02:20;7.30;1.00
22578;DHT22;11455;52.390;13.028;2023-03-04T14:07:25;7.30;1.00
22578;DHT22;11455;52.390;13.028;2023-03-04T14:12:20;7.20;1.00
22578;DHT22;11455;52.390;13.028;2023-03-04T14:17:16;7.20;1.00
22578;DHT22;11455;52.390;13.028;2023-03-04T14:19:44;7.20;1.00
22578;DHT22;11455;52.390;13.028;2023-03-04T14:22:43;7.10;1.00
22578;DHT22;11455;52.390;13.028;2023-03-04T14:27:33;7.10;1.00
22578;DHT22;11455;52.390;13.028;2023-03-04T14:30:01;7.10;1.00
22578;DHT22;11455;52.390;13.028;2023-03-04T14:32:30;7.10;1.00
22578;DHT22;11455;52.390;13.028;2023-03-04T14:35:05;7.00;1.00
22578;DHT22;11455;52.390;13.028;2023-03-04T14:37:37;6.90;1.00
22578;DHT22;11455;52.390;13.028;2023-03-04T14:40:06;7.00;1.00
22578;DHT22;11455;52.390;13.028;2023-03-04T14:42:36;7.00;1.00
22578;DHT22;11455;52.390;13.028;2023-03-04T14:45:06;7.00;1.00
22578;DHT22;11455;52.390;13.028;2023-03-04T14:47:36;7.00;1.00
22578;DHT22;11455;52.390;13.028;2023-03-04T14:50:09;7.00;1.00
22578;DHT22;11455;52.390;13.028;2023-03-04T14:52:38;6.90;1.00
22578;DHT22;11455;52.390;13.028;2023-03-04T14:55:15;6.90;1.00
22578;DHT22;11455;52.390;13.028;2023-03-04T14:57:42;6.90;1.00
22578;DHT22;11455;52.390;13.028;2023-03-04T15:02:40;6.90;1.00
22578;DHT22;11455;52.390;13.028;2023-03-04T15:05:10;7.00;1.00
22578;DHT22;11455;52.390;13.028;2023-03-04T15:07:43;7.10;1.00
22578;DHT22;11455;52.390;13.028;2023-03-04T15:10:19;7.10;1.00
22578;DHT22;11455;52.390;13.028;2023-03-04T15:12:49;7.10;1.00
22578;DHT22;11455;52.390;13.028;2023-03-04T15:18:00;6.90;1.00
22578;DHT22;11455;52.390;13.028;2023-03-04T15:20:28;6.80;1.00
22578;DHT22;11455;52.390;13.028;2023-03-04T15:25:19;6.90;1.00
22578;DHT22;11455;52.390;13.028;2023-03-04T15:27:45;6.90;1.00
22578;DHT22;11455;52.390;13.028;2023-03-04T15:30:15;6.80;1.00
22578;DHT22;11455;52.390;13.028;2023-03-04T15:32:41;6.80;1.00
22578;DHT22;11455;52.390;13.028;2023-03-04T15:35:10;6.90;1.00
22578;DHT22;11455;52.390;13.028;2023-03-04T15:37:36;6.90;1.00
22578;DHT22;11455;52.390;13.028;2023-03-04T15:40:02;6.90;1.00
22578;DHT22;11455;52.390;13.028;2023-03-04T15:42:29;6.90;1.00
22578;DHT22;11455;52.390;13.028;2023-03-04T15:44:55;6.90;1.00
22578;DHT22;11455;52.390;13.028;2023-03-04T15:47:21;6.90;1.00
22578;DHT22;11455;52.390;13.028;2023-03-04T15:49:46;6.90;1.00
22578;DHT22;11455;52.390;13.028;2023-03-04T15:52:14;6.90;1.00
22578;DHT22;11455;52.390;13.028;2023-03-04T15:54:41;6.90;1.00
22578;DHT22;11455;52.390;13.028;2023-03-04T15:57:08;6.90;1.00
22578;DHT22;11455;52.390;13.028;2023-03-04T15:59:39;7.00;1.00
22578;DHT22;11455;52.390;13.028;2023-03-04T16:02:09;6.90;1.00
22578;DHT22;11455;52.390;13.028;2023-03-04T16:04:37;6.90;1.00
22578;DHT22;11455;52.390;13.028;2023-03-04T16:07:05;6.70;1.00
22578;DHT22;11455;52.390;13.028;2023-03-04T16:09:31;6.80;1.00
22578;DHT22;11455;52.390;13.028;2023-03-04T16:11:57;6.70;1.00
22578;DHT22;11455;52.390;13.028;2023-03-04T16:14:26;6.70;1.00
22578;DHT22;11455;52.390;13.028;2023-03-04T16:16:52;6.70;1.00
22578;DHT22;11455;52.390;13.028;2023-03-04T16:19:18;6.70;1.00
22578;DHT22;11455;52.390;13.028;2023-03-04T16:21:43;6.80;1.00
22578;DHT22;11455;52.390;13.028;2023-03-04T16:24:16;6.80;1.00
22578;DHT22;11455;52.390;13.028;2023-03-04T16:27:00;6.80;1.00
22578;DHT22;11455;52.390;13.028;2023-03-04T16:29:25;6.70;1.00
22578;DHT22;11455;52.390;13.028;2023-03-04T16:31:53;6.70;1.00
22578;DHT22;11455;52.390;13.028;2023-03-04T16:34:19;6.70;1.00
22578;DHT22;11455;52.390;13.028;2023-03-04T16:36:45;6.60;1.00
22578;DHT22;11455;52.390;13.028;2023-03-04T16:39:14;6.60;1.00
22578;DHT22;11455;52.390;13.028;2023-03-04T16:41:44;6.70;1.00
22578;DHT22;11455;52.390;13.028;2023-03-04T16:44:09;6.60;1.00
22578;DHT22;11455;52.390;13.028;2023-03-04T16:46:38;6.70;1.00
22578;DHT22;11455;52.390;13.028;2023-03-04T16:49:09;6.60;1.00
22578;DHT22;11455;52.390;13.028;2023-03-04T16:51:39;6.70;1.00
22578;DHT22;11455;52.390;13.028;2023-03-04T16:54:18;6.70;1.00
22578;DHT22;11455;52.390;13.028;2023-03-04T16:56:48;6.70;1.00
22578;DHT22;11455;52.390;13.028;2023-03-04T16:59:14;6.70;1.00
22578;DHT22;11455;52.390;13.028;2023-03-04T17:01:40;6.70;1.00
22578;DHT22;11455;52.390;13.028;2023-03-04T17:04:06;6.80;1.00
22578;DHT22;11455;52.390;13.028;2023-03-04T17:06:32;6.80;1.00
22578;DHT22;11455;52.390;13.028;2023-03-04T17:08:58;6.80;1.00
22578;DHT22;11455;52.390;13.028;2023-03-04T17:11:24;6.80;1.00
22578;DHT22;11455;52.390;13.028;2023-03-04T17:13:50;6.70;1.00
22578;DHT22;11455;52.390;13.028;2023-03-04T17:16:18;6.70;1.00
22578;DHT22;11455;52.390;13.028;2023-03-04T17:18:43;6.60;1.00
22578;DHT22;11455;52.390;13.028;2023-03-04T17:21:11;6.50;1.00
22578;DHT22;11455;52.390;13.028;2023-03-04T17:23:37;6.50;1.00
22578;DHT22;11455;52.390;13.028;2023-03-04T17:26:07;6.40;1.00